Terminal Aerodrome Forecast
Issued by NWS

Home | Current Version | Previous Version | Text Only | Print | Product List | Glossary On
Versions: 1 2 3 4 5 6 7 8 9 10 11 12 13 14 15 16 17 18 19 20 21
000
FTUS43 KMQT 212200 AAA
TAFIWD
TAF AMD
KIWD 212209Z 2122/2218 14006KT P6SM OVC020
     FM220000 14006KT P6SM SCT020 OVC045
     FM220400 13005KT 6SM BR OVC015
     FM220600 VRB03KT 1SM BR OVC005
     FM221500 VRB03KT P6SM BKN045
      AMD LTD TO CLD VIS AND WIND=

USA.gov is the U.S. government's official web portal to all federal, state and local government web resources and services.